Time;durP1;ratioP1;P1;durP2;ratioP2;P2;SDS_P1;SDS_P2;PMS_P1;PMS_P2;Temp;Humidity;BMP_temperature;BMP_pressure;BME280_temperature;BME280_humidity;BME280_pressure;Samples;Min_cycle;Max_cycle;Signal;HPM_P1;HPM_P2
2023/05/25 04:00:33;;;;;;;3.70;3.50;;;10.80;99.90;;;;;;5863290;23;21295;-71
2023/05/25 04:03:00;;;;;;;4.68;2.28;;;10.90;99.90;;;;;;4964168;28;20227;-71
2023/05/25 04:05:26;;;;;;;7.05;4.10;;;10.90;99.90;;;;;;4970682;28;20221;-72
2023/05/25 04:07:53;;;;;;;2.22;2.03;;;11.00;99.90;;;;;;4971928;28;20264;-72
2023/05/25 04:10:20;;;;;;;8.43;3.70;;;10.90;99.90;;;;;;4966812;28;20241;-72
2023/05/25 04:12:47;;;;;;;2.67;2.38;;;10.90;99.90;;;;;;4965100;28;20228;-72
2023/05/25 04:15:14;;;;;;;2.80;2.70;;;10.90;99.90;;;;;;4967881;28;20211;-73
2023/05/25 04:17:42;;;;;;;5.05;4.55;;;10.90;99.90;;;;;;4970996;28;20212;-73
2023/05/25 04:20:09;;;;;;;4.07;3.78;;;11.00;99.90;;;;;;4973003;28;20319;-73
2023/05/25 04:22:37;;;;;;;8.85;4.63;;;11.00;99.90;;;;;;4981500;28;20210;-72
2023/05/25 04:25:05;;;;;;;5.85;3.28;;;10.90;99.90;;;;;;4971161;28;20279;-72
2023/05/25 04:27:32;;;;;;;8.35;5.32;;;11.00;99.90;;;;;;4971718;28;20200;-72
2023/05/25 04:29:59;;;;;;;9.75;4.80;;;11.00;99.90;;;;;;4967519;28;20304;-72
2023/05/25 04:32:28;;;;;;;15.82;6.35;;;11.00;99.90;;;;;;4975987;28;20224;-73
2023/05/25 04:34:57;;;;;;;12.98;8.10;;;11.10;99.90;;;;;;4965513;28;20296;-73
2023/05/25 04:37:26;;;;;;;11.18;5.57;;;11.10;99.90;;;;;;4969203;28;20242;-73
2023/05/25 04:39:52;;;;;;;6.03;3.53;;;11.00;99.90;;;;;;4974542;28;20324;-73
2023/05/25 04:42:22;;;;;;;11.07;4.40;;;11.00;99.90;;;;;;4978639;28;20595;-73
2023/05/25 04:44:49;;;;;;;12.30;6.63;;;11.00;99.90;;;;;;4975317;28;20307;-72
2023/05/25 04:47:18;;;;;;;9.88;4.55;;;11.00;99.90;;;;;;4975602;28;20262;-72
2023/05/25 04:49:44;;;;;;;9.10;4.55;;;11.00;99.90;;;;;;4972907;28;20204;-72
2023/05/25 04:52:13;;;;;;;10.10;5.32;;;11.10;99.90;;;;;;4970391;28;20313;-72
2023/05/25 04:54:40;;;;;;;12.18;7.82;;;11.10;99.90;;;;;;4973516;28;20315;-72
2023/05/25 04:57:07;;;;;;;20.60;7.28;;;11.10;99.90;;;;;;4976030;28;20209;-72
2023/05/25 04:59:33;;;;;;;13.23;6.30;;;11.10;99.90;;;;;;4973427;28;20219;-72
2023/05/25 05:02:00;;;;;;;13.85;7.22;;;11.10;99.90;;;;;;4964720;28;20608;-72
2023/05/25 05:04:27;;;;;;;10.55;6.25;;;11.10;99.90;;;;;;4961816;28;20570;-72
2023/05/25 05:06:54;;;;;;;10.38;5.28;;;11.10;99.90;;;;;;4970017;28;20212;-73
2023/05/25 05:09:22;;;;;;;16.42;5.10;;;11.20;99.90;;;;;;4974660;28;20223;-73
2023/05/25 05:11:49;;;;;;;7.13;5.20;;;11.20;99.90;;;;;;4975002;28;20618;-71
2023/05/25 05:14:16;;;;;;;11.15;4.80;;;11.10;99.90;;;;;;4970742;28;20244;-70
2023/05/25 05:16:43;;;;;;;16.85;6.50;;;11.10;99.90;;;;;;4962222;28;20673;-70
2023/05/25 05:19:10;;;;;;;6.53;6.10;;;11.20;99.90;;;;;;4970934;28;20212;-67
2023/05/25 05:21:36;;;;;;;11.30;7.47;;;11.10;99.90;;;;;;4975964;28;20304;-70
2023/05/25 05:24:03;;;;;;;15.68;6.40;;;11.20;99.90;;;;;;4971520;28;20224;-72
2023/05/25 05:26:31;;;;;;;10.27;9.10;;;11.20;99.90;;;;;;4972007;28;20201;-71
2023/05/25 05:28:58;;;;;;;6.75;6.15;;;11.10;99.90;;;;;;4968885;28;20216;-73
2023/05/25 05:31:26;;;;;;;12.80;5.25;;;11.20;99.90;;;;;;4973907;28;20220;-71
2023/05/25 05:33:52;;;;;;;8.00;6.97;;;11.20;99.90;;;;;;4975520;28;20211;-72
2023/05/25 05:36:19;;;;;;;16.27;5.63;;;11.30;99.90;;;;;;4966356;28;20209;-72
2023/05/25 05:38:46;;;;;;;5.20;4.75;;;11.30;99.90;;;;;;4962938;28;20597;-73
2023/05/25 05:41:13;;;;;;;9.13;4.22;;;11.40;99.90;;;;;;4974011;28;20283;-73
2023/05/25 05:43:42;;;;;;;6.28;4.38;;;11.40;99.90;;;;;;4972723;28;20210;-73
2023/05/25 05:46:10;;;;;;;5.55;4.78;;;11.40;99.90;;;;;;4968638;28;20228;-73
2023/05/25 05:48:36;;;;;;;10.23;5.43;;;11.40;99.90;;;;;;4964362;28;20246;-73
2023/05/25 05:51:03;;;;;;;5.53;4.47;;;11.50;99.90;;;;;;4973649;28;20685;-74
2023/05/25 05:53:31;;;;;;;7.78;4.85;;;11.60;99.90;;;;;;4977218;28;20211;-73
2023/05/25 05:55:58;;;;;;;4.82;4.53;;;11.60;99.90;;;;;;4979956;28;20260;-73
2023/05/25 05:58:26;;;;;;;9.40;4.30;;;11.60;99.90;;;;;;4972110;28;20228;-72
2023/05/25 06:00:55;;;;;;;10.32;4.10;;;11.60;99.90;;;;;;4976638;28;20268;-72
2023/05/25 06:03:23;;;;;;;5.77;4.47;;;11.60;99.90;;;;;;4960815;28;20224;-73
2023/05/25 06:05:50;;;;;;;6.65;3.97;;;11.60;99.90;;;;;;4970179;28;20490;-73
2023/05/25 06:08:17;;;;;;;9.38;3.80;;;11.60;99.90;;;;;;4973409;28;20208;-73
2023/05/25 06:10:43;;;;;;;5.50;3.78;;;11.60;99.90;;;;;;4971646;28;20727;-73
2023/05/25 06:13:10;;;;;;;4.78;4.32;;;11.60;99.90;;;;;;4968552;28;20555;-73
2023/05/25 06:15:37;;;;;;;11.68;3.50;;;11.60;99.90;;;;;;4971326;28;20494;-73
2023/05/25 06:18:05;;;;;;;5.37;3.70;;;11.60;99.90;;;;;;4966080;28;20232;-72
2023/05/25 06:20:32;;;;;;;3.53;3.33;;;11.60;99.90;;;;;;4974130;28;20523;-73
2023/05/25 06:22:59;;;;;;;3.43;3.23;;;11.60;99.90;;;;;;4960363;28;20209;-73
2023/05/25 06:25:25;;;;;;;5.75;3.45;;;11.60;99.90;;;;;;4977539;28;20491;-73
2023/05/25 06:27:52;;;;;;;4.23;2.67;;;11.80;99.90;;;;;;4971256;28;20208;-73
2023/05/25 06:30:19;;;;;;;3.40;3.13;;;11.90;99.90;;;;;;4969631;28;20799;-72
2023/05/25 06:32:45;;;;;;;3.27;3.00;;;11.90;99.90;;;;;;4975000;28;20468;-72
2023/05/25 06:35:18;;;;;;;8.37;3.57;;;12.00;99.90;;;;;;4971403;28;20456;-73
2023/05/25 06:37:45;;;;;;;2.40;2.23;;;12.10;99.90;;;;;;4975085;28;20478;-73
2023/05/25 06:40:12;;;;;;;5.50;3.63;;;12.10;99.90;;;;;;4971246;28;20472;-72
2023/05/25 06:42:39;;;;;;;3.07;2.77;;;12.10;99.90;;;;;;4964087;28;20473;-74
2023/05/25 06:45:07;;;;;;;3.47;3.17;;;12.10;99.90;;;;;;4971422;28;20484;-73
2023/05/25 06:47:33;;;;;;;5.20;3.40;;;12.10;99.90;;;;;;4970224;28;20481;-73
2023/05/25 06:50:00;;;;;;;6.20;2.57;;;12.10;99.90;;;;;;4971045;28;20478;-73
2023/05/25 06:52:28;;;;;;;3.33;2.93;;;12.10;99.90;;;;;;4983274;28;20487;-73
2023/05/25 06:54:56;;;;;;;1.97;1.77;;;12.20;99.90;;;;;;4986166;28;20456;-73
2023/05/25 06:57:23;;;;;;;2.30;2.20;;;12.30;99.90;;;;;;4976895;28;20480;-73
2023/05/25 06:59:50;;;;;;;2.20;1.90;;;12.20;99.90;;;;;;4977288;28;20464;-74
2023/05/25 07:02:19;;;;;;;3.00;2.10;;;12.30;99.90;;;;;;4976974;28;20492;-73
2023/05/25 07:04:46;;;;;;;1.67;1.33;;;12.40;99.90;;;;;;4975283;28;20496;-73
2023/05/25 07:07:13;;;;;;;4.20;2.57;;;12.60;99.90;;;;;;4974256;28;20468;-73
2023/05/25 07:09:41;;;;;;;2.50;2.40;;;12.70;99.90;;;;;;4963965;28;20498;-73
2023/05/25 07:12:09;;;;;;;3.37;2.90;;;12.80;99.90;;;;;;4975096;28;20491;-73
2023/05/25 07:14:36;;;;;;;5.13;2.60;;;13.00;99.90;;;;;;4967416;28;20586;-73
2023/05/25 07:17:03;;;;;;;5.60;1.93;;;12.90;99.90;;;;;;4972714;28;20479;-73
2023/05/25 07:19:30;;;;;;;2.83;2.60;;;12.90;99.90;;;;;;4965297;28;20478;-73
2023/05/25 07:21:56;;;;;;;2.73;2.63;;;12.80;99.90;;;;;;4966437;28;20495;-73
2023/05/25 07:24:23;;;;;;;2.33;2.23;;;12.90;99.90;;;;;;4973966;28;20468;-74
2023/05/25 07:26:52;;;;;;;3.03;2.03;;;13.10;99.90;;;;;;4965296;28;20479;-74
2023/05/25 07:29:19;;;;;;;3.50;2.03;;;13.20;99.90;;;;;;4973305;28;20801;-73
2023/05/25 07:31:45;;;;;;;2.43;1.80;;;13.40;99.90;;;;;;4973696;28;20587;-73
2023/05/25 07:34:12;;;;;;;2.73;1.67;;;13.50;99.90;;;;;;4970212;28;20948;-73
2023/05/25 07:36:39;;;;;;;1.67;1.53;;;13.70;99.90;;;;;;4971422;28;20467;-73
2023/05/25 07:39:05;;;;;;;3.53;1.83;;;13.90;99.90;;;;;;4961309;28;20477;-73
2023/05/25 07:41:32;;;;;;;5.53;2.27;;;14.20;99.90;;;;;;4965819;28;20476;-73
2023/05/25 07:44:01;;;;;;;11.00;1.93;;;14.30;99.90;;;;;;4965365;28;20464;-73
2023/05/25 07:46:27;;;;;;;2.83;2.50;;;14.60;99.90;;;;;;4963340;28;20493;-73
2023/05/25 07:48:55;;;;;;;5.03;2.10;;;14.70;99.90;;;;;;4973482;28;20467;-73
2023/05/25 07:51:25;;;;;;;3.63;1.97;;;15.10;99.90;;;;;;4962190;28;20492;-73
2023/05/25 07:53:52;;;;;;;1.70;1.60;;;16.00;99.90;;;;;;4965530;28;20472;-73
2023/05/25 07:56:19;;;;;;;1.73;1.63;;;16.60;99.90;;;;;;4972642;28;20856;-72
2023/05/25 07:58:46;;;;;;;2.03;1.93;;;17.30;99.90;;;;;;4971323;28;20477;-74
2023/05/25 08:03:48;;;;;;;1.70;1.63;;;17.80;99.90;;;;;;4977708;28;20858;-73
2023/05/25 08:06:15;;;;;;;4.03;3.00;;;18.20;99.90;;;;;;4983279;28;20653;-72
2023/05/25 08:08:43;;;;;;;1.50;1.40;;;18.30;99.90;;;;;;4980905;28;20472;-72
2023/05/25 08:11:10;;;;;;;1.30;1.30;;;18.60;99.90;;;;;;4983674;28;20712;-72
2023/05/25 08:13:37;;;;;;;2.90;1.70;;;18.90;99.90;;;;;;4976321;28;20568;-72
2023/05/25 08:16:03;;;;;;;4.13;2.63;;;18.80;99.90;;;;;;4969364;28;20475;-72
2023/05/25 08:18:30;;;;;;;2.20;2.03;;;18.30;99.90;;;;;;4967434;28;20509;-70
2023/05/25 08:20:58;;;;;;;4.47;3.47;;;17.90;99.90;;;;;;4965361;28;20914;-70
2023/05/25 08:23:25;;;;;;;2.07;2.07;;;17.60;99.90;;;;;;4967728;28;20485;-70
2023/05/25 08:25:52;;;;;;;3.47;2.37;;;17.00;99.90;;;;;;4973136;28;20495;-70
2023/05/25 08:28:20;;;;;;;4.53;2.20;;;17.30;99.90;;;;;;4972299;28;20466;-70
2023/05/25 08:30:47;;;;;;;3.43;2.67;;;17.70;99.90;;;;;;4964649;28;20538;-71
2023/05/25 08:33:13;;;;;;;2.23;2.03;;;18.00;99.90;;;;;;4961618;28;20563;-71
2023/05/25 08:35:41;;;;;;;3.03;2.43;;;18.40;99.90;;;;;;4964889;28;20477;-70
2023/05/25 08:38:09;;;;;;;3.20;3.00;;;18.70;99.90;;;;;;4969506;28;20470;-71
2023/05/25 08:40:37;;;;;;;2.43;2.37;;;18.70;99.90;;;;;;4970481;28;20494;-71
2023/05/25 08:43:03;;;;;;;2.53;2.43;;;18.40;99.90;;;;;;4971912;28;20482;-70
2023/05/25 08:45:30;;;;;;;3.33;2.43;;;18.20;99.90;;;;;;4968434;28;20844;-71
2023/05/25 08:47:59;;;;;;;2.20;2.10;;;18.10;99.90;;;;;;4971934;28;20484;-70
2023/05/25 08:50:27;;;;;;;1.70;1.60;;;18.00;99.90;;;;;;4959499;28;20476;-69
2023/05/25 08:52:55;;;;;;;2.47;1.97;;;17.80;99.90;;;;;;4969375;28;20855;-73
2023/05/25 08:55:26;;;;;;;7.00;3.50;;;17.50;99.90;;;;;;4969210;28;20895;-72
2023/05/25 08:57:59;;;;;;;2.33;2.27;;;17.30;99.90;;;;;;4963392;28;20510;-72
2023/05/25 09:00:31;;;;;;;2.90;2.33;;;17.20;99.90;;;;;;4966692;28;20828;-74
2023/05/25 09:03:06;;;;;;;1.97;1.87;;;17.30;99.90;;;;;;4969804;28;20491;-72
2023/05/25 09:05:34;;;;;;;4.90;2.17;;;17.20;99.90;;;;;;4967101;28;20518;-72
2023/05/25 09:08:03;;;;;;;2.43;1.90;;;17.10;99.90;;;;;;4970029;28;20534;-73
2023/05/25 09:10:33;;;;;;;1.90;1.90;;;17.10;99.90;;;;;;4962688;28;20471;-72
2023/05/25 09:13:00;;;;;;;1.47;1.37;;;17.20;99.90;;;;;;4966017;28;20488;-73
2023/05/25 09:15:27;;;;;;;9.73;1.83;;;17.30;99.90;;;;;;4966965;28;20983;-71
2023/05/25 09:17:53;;;;;;;2.47;2.27;;;17.50;99.90;;;;;;4970179;28;20471;-73
2023/05/25 09:20:20;;;;;;;5.20;2.07;;;17.50;99.90;;;;;;4968148;28;20464;-72
2023/05/25 09:22:47;;;;;;;3.93;2.10;;;17.60;99.90;;;;;;4971378;28;20479;-72
2023/05/25 09:25:19;;;;;;;2.50;1.73;;;17.50;99.90;;;;;;4966902;28;20555;-74
2023/05/25 09:27:47;;;;;;;5.93;1.33;;;17.30;99.90;;;;;;4971010;28;20471;-72
2023/05/25 09:30:13;;;;;;;2.47;1.60;;;17.30;99.90;;;;;;4970100;28;20467;-72
2023/05/25 09:32:40;;;;;;;2.57;1.83;;;17.30;99.90;;;;;;4965772;28;20507;-73
2023/05/25 09:35:08;;;;;;;6.70;1.57;;;17.30;99.90;;;;;;4965709;28;20551;-72
2023/05/25 09:37:35;;;;;;;1.73;1.50;;;17.40;99.90;;;;;;4969552;28;20472;-72
2023/05/25 09:40:05;;;;;;;3.00;1.70;;;17.60;99.90;;;;;;4969732;28;20579;-74
2023/05/25 09:42:33;;;;;;;2.27;1.17;;;17.80;99.90;;;;;;4971362;28;20508;-72
2023/05/25 09:45:01;;;;;;;2.03;1.40;;;17.80;99.90;;;;;;4962278;28;20468;-73
2023/05/25 09:47:29;;;;;;;3.10;1.60;;;17.70;99.90;;;;;;4962846;28;20554;-73
2023/05/25 09:49:57;;;;;;;5.23;1.80;;;17.70;99.90;;;;;;4970502;28;20467;-71
2023/05/25 09:52:24;;;;;;;1.80;1.70;;;17.70;99.90;;;;;;4968239;28;20500;-72
2023/05/25 09:54:51;;;;;;;7.70;1.20;;;17.80;99.90;;;;;;4970310;28;20467;-73
2023/05/25 09:57:19;;;;;;;0.80;0.80;;;17.90;99.90;;;;;;4971442;28;20514;-71
2023/05/25 09:59:47;;;;;;;0.60;0.60;;;17.60;99.90;;;;;;4967620;28;20787;-71
2023/05/25 10:02:15;;;;;;;1.30;1.30;;;17.40;99.90;;;;;;4970861;28;20495;-71
2023/05/25 10:04:41;;;;;;;4.63;1.37;;;17.30;99.90;;;;;;4969510;28;21047;-71
2023/05/25 10:07:08;;;;;;;1.57;1.00;;;17.40;99.90;;;;;;4963106;28;20498;-72
2023/05/25 10:09:39;;;;;;;3.27;1.60;;;17.40;99.90;;;;;;4970136;28;20475;-71
2023/05/25 10:12:07;;;;;;;1.60;1.10;;;17.50;99.90;;;;;;4971115;28;20566;-73
2023/05/25 10:14:36;;;;;;;2.10;1.30;;;17.60;99.90;;;;;;4967595;28;20463;-72
2023/05/25 10:17:05;;;;;;;0.60;0.60;;;17.60;99.90;;;;;;4973060;28;20464;-71
2023/05/25 10:19:40;;;;;;;2.53;1.20;;;17.60;99.90;;;;;;4958500;28;21378;-73
2023/05/25 10:22:13;;;;;;;1.10;1.00;;;17.60;99.90;;;;;;4971756;28;21003;-72
2023/05/25 10:24:47;;;;;;;2.97;1.50;;;17.80;99.90;;;;;;4972023;28;20463;-72
2023/05/25 10:27:24;;;;;;;2.20;1.00;;;18.10;99.90;;;;;;4969613;28;20496;-73
2023/05/25 10:29:52;;;;;;;1.10;1.10;;;18.20;99.90;;;;;;4972623;28;20482;-72
2023/05/25 10:32:19;;;;;;;1.10;0.73;;;18.20;99.90;;;;;;4970443;28;20499;-72
2023/05/25 10:34:48;;;;;;;1.40;1.13;;;18.10;99.90;;;;;;4964301;28;20471;-72
2023/05/25 10:37:15;;;;;;;3.10;1.13;;;18.10;99.90;;;;;;4972571;28;20500;-71
2023/05/25 10:39:42;;;;;;;2.40;0.73;;;18.10;99.90;;;;;;4965176;28;21136;-72
2023/05/25 10:42:10;;;;;;;2.83;1.93;;;17.90;99.90;;;;;;4970097;28;20590;-71
2023/05/25 10:44:37;;;;;;;3.50;1.17;;;17.80;99.90;;;;;;4968923;28;20503;-71
2023/05/25 10:47:05;;;;;;;1.60;1.50;;;17.70;99.90;;;;;;4971999;28;21015;-72
2023/05/25 10:49:32;;;;;;;7.40;1.20;;;17.80;99.90;;;;;;4966583;28;20464;-71
2023/05/25 10:52:02;;;;;;;0.70;0.70;;;17.90;99.90;;;;;;4967618;28;21102;-71
2023/05/25 10:54:31;;;;;;;3.53;0.93;;;17.80;99.90;;;;;;4967270;28;21410;-70
2023/05/25 10:57:11;;;;;;;3.83;0.93;;;17.70;99.90;;;;;;4972628;28;20538;-71
2023/05/25 10:59:43;;;;;;;2.97;1.60;;;17.70;99.90;;;;;;4973282;28;20456;-71
2023/05/25 11:02:11;;;;;;;2.10;0.60;;;17.70;99.90;;;;;;4967238;28;20495;-71
2023/05/25 11:04:37;;;;;;;2.07;1.23;;;17.80;99.90;;;;;;4963214;28;20534;-71
2023/05/25 11:07:13;;;;;;;1.70;1.60;;;17.80;99.90;;;;;;4972134;28;20484;-72
2023/05/25 11:09:43;;;;;;;1.47;1.47;;;17.80;99.90;;;;;;4973180;28;20909;-71
2023/05/25 11:12:20;;;;;;;2.03;1.60;;;17.70;99.90;;;;;;4963924;28;20557;-72
2023/05/25 11:15:08;;;;;;;1.37;1.27;;;17.90;99.90;;;;;;4963574;28;20746;-71
2023/05/25 11:17:44;;;;;;;1.13;1.13;;;17.80;99.90;;;;;;4968493;28;20493;-71
2023/05/25 11:20:22;;;;;;;3.60;0.87;;;17.80;99.90;;;;;;4970300;28;20471;-72
2023/05/25 11:22:51;;;;;;;0.63;0.60;;;17.80;99.90;;;;;;4972029;28;20475;-71
2023/05/25 11:25:38;;;;;;;0.43;0.43;;;17.80;99.90;;;;;;4970696;28;20892;-71
2023/05/25 11:28:06;;;;;;;3.50;1.43;;;17.70;99.90;;;;;;4964403;28;20463;-71
2023/05/25 11:30:33;;;;;;;2.87;1.50;;;17.80;99.90;;;;;;4964977;28;20499;-72
2023/05/25 11:33:02;;;;;;;2.27;1.50;;;17.90;99.90;;;;;;4972140;28;20487;-71
2023/05/25 11:35:32;;;;;;;9.53;2.30;;;17.90;99.90;;;;;;4969608;28;20575;-71
2023/05/25 11:38:01;;;;;;;2.30;1.63;;;18.00;99.90;;;;;;4970704;28;20472;-70
2023/05/25 11:40:31;;;;;;;2.57;1.10;;;17.80;99.90;;;;;;4966070;28;20472;-70
2023/05/25 11:42:59;;;;;;;3.60;1.33;;;17.90;99.90;;;;;;4972050;28;20496;-71
2023/05/25 11:45:28;;;;;;;3.40;1.80;;;17.90;99.90;;;;;;4968154;28;20476;-71
2023/05/25 11:47:55;;;;;;;6.33;1.97;;;17.90;99.90;;;;;;4972339;28;20495;-71
2023/05/25 11:50:22;;;;;;;6.53;1.87;;;18.00;99.90;;;;;;4971010;28;20478;-71
2023/05/25 11:52:49;;;;;;;1.27;1.17;;;18.10;99.90;;;;;;4960782;28;20492;-71
2023/05/25 11:55:17;;;;;;;2.50;1.87;;;18.20;99.90;;;;;;4966219;28;20471;-71
2023/05/25 11:57:43;;;;;;;5.63;1.23;;;18.20;99.90;;;;;;4969565;28;20460;-72
2023/05/25 12:00:12;;;;;;;1.80;1.70;;;18.20;99.90;;;;;;4970862;28;20472;-71
2023/05/25 12:02:40;;;;;;;13.53;3.07;;;18.30;99.90;;;;;;4972364;28;20637;-72
2023/05/25 12:05:08;;;;;;;2.83;1.83;;;18.30;99.90;;;;;;4964955;28;22736;-72
2023/05/25 12:07:35;;;;;;;1.77;1.67;;;18.40;99.90;;;;;;4969179;28;20533;-72
2023/05/25 12:10:06;;;;;;;4.93;1.87;;;18.30;99.90;;;;;;4966418;28;20467;-72
2023/05/25 12:12:40;;;;;;;3.00;1.77;;;18.30;99.90;;;;;;4968131;28;20497;-72
2023/05/25 12:15:09;;;;;;;1.90;1.80;;;18.30;99.90;;;;;;4968402;28;20482;-71
2023/05/25 12:17:36;;;;;;;4.13;2.70;;;18.30;99.90;;;;;;4966950;28;20871;-72
2023/05/25 12:20:03;;;;;;;11.23;1.77;;;18.40;99.90;;;;;;4955367;28;20468;-72
2023/05/25 12:22:30;;;;;;;9.23;1.70;;;18.50;99.90;;;;;;4971255;28;20495;-72
2023/05/25 12:24:57;;;;;;;4.33;1.47;;;18.60;99.90;;;;;;4969947;28;20608;-71
2023/05/25 12:27:24;;;;;;;2.30;1.43;;;18.70;99.90;;;;;;4962941;28;20519;-72
2023/05/25 12:29:53;;;;;;;3.87;2.40;;;18.80;99.90;;;;;;4971643;28;20547;-72
2023/05/25 12:32:19;;;;;;;5.00;2.33;;;19.00;99.90;;;;;;4970896;28;20491;-71
2023/05/25 12:34:46;;;;;;;6.83;2.00;;;19.40;99.90;;;;;;4961330;28;20476;-72
2023/05/25 12:37:18;;;;;;;3.63;2.27;;;19.40;99.90;;;;;;4970296;28;20456;-72
2023/05/25 12:39:45;;;;;;;2.03;1.93;;;19.50;99.90;;;;;;4969125;28;20574;-72
2023/05/25 12:42:14;;;;;;;5.53;1.93;;;19.50;99.90;;;;;;4965576;28;20577;-73
2023/05/25 12:44:42;;;;;;;1.50;1.40;;;19.40;99.90;;;;;;4966810;28;20642;-72
2023/05/25 12:47:14;;;;;;;5.50;2.50;;;19.40;99.90;;;;;;4971743;28;20479;-71
2023/05/25 12:49:42;;;;;;;1.93;1.83;;;19.30;99.90;;;;;;4965436;28;20503;-71
2023/05/25 12:52:10;;;;;;;8.87;2.30;;;19.20;99.90;;;;;;4962806;28;20527;-71
2023/05/25 12:54:44;;;;;;;5.83;2.50;;;19.30;99.90;;;;;;4970594;28;20476;-71
2023/05/25 12:57:12;;;;;;;3.10;2.30;;;19.20;99.90;;;;;;4969977;28;20452;-71
2023/05/25 12:59:41;;;;;;;6.60;2.40;;;19.50;99.90;;;;;;4970473;28;20495;-71
2023/05/25 13:02:08;;;;;;;6.73;2.60;;;19.40;99.90;;;;;;4962457;28;20536;-72
2023/05/25 13:04:38;;;;;;;6.27;1.73;;;19.10;99.90;;;;;;4968649;28;20471;-71
2023/05/25 13:07:05;;;;;;;2.23;1.43;;;19.20;99.90;;;;;;4968699;28;20514;-71
2023/05/25 13:09:32;;;;;;;9.93;2.27;;;19.10;99.90;;;;;;4967666;28;20534;-72
2023/05/25 13:12:00;;;;;;;3.53;2.17;;;19.00;99.90;;;;;;4968530;28;20570;-71
2023/05/25 13:14:27;;;;;;;3.15;2.10;;;19.10;99.90;;;;;;4969005;28;20462;-71
2023/05/25 13:16:55;;;;;;;2.20;2.03;;;19.10;99.90;;;;;;4971418;28;20200;-71
2023/05/25 13:19:24;;;;;;;3.37;1.10;;;19.20;99.90;;;;;;4963149;28;20506;-72
2023/05/25 13:21:54;;;;;;;0.77;0.77;;;19.10;99.90;;;;;;4964540;28;20895;-71
2023/05/25 13:24:21;;;;;;;1.93;1.83;;;19.10;99.90;;;;;;4968513;28;20464;-71
2023/05/25 13:26:49;;;;;;;2.10;2.00;;;19.10;99.90;;;;;;4971577;28;21003;-71
2023/05/25 13:29:16;;;;;;;3.20;1.50;;;19.10;99.90;;;;;;4962529;28;20551;-71
2023/05/25 13:31:42;;;;;;;2.50;1.63;;;19.10;99.90;;;;;;4965083;28;20548;-71
2023/05/25 13:34:09;;;;;;;3.63;2.10;;;19.10;99.90;;;;;;4962002;28;20468;-71
2023/05/25 13:36:36;;;;;;;11.57;2.10;;;19.10;99.90;;;;;;4968509;28;20824;-71
2023/05/25 13:39:04;;;;;;;4.83;2.03;;;19.20;99.90;;;;;;4960707;28;20569;-71
2023/05/25 13:41:31;;;;;;;4.13;2.50;;;19.30;99.90;;;;;;4961569;28;20554;-71
2023/05/25 13:43:58;;;;;;;5.17;1.93;;;19.20;99.90;;;;;;4969188;28;20514;-71
2023/05/25 13:46:24;;;;;;;2.50;2.30;;;19.10;99.90;;;;;;4973100;28;20475;-71
2023/05/25 13:48:51;;;;;;;3.33;2.60;;;19.10;99.90;;;;;;4975610;28;20464;-68
2023/05/25 13:51:18;;;;;;;7.93;2.80;;;19.10;99.90;;;;;;4972003;28;20561;-71
2023/05/25 13:53:45;;;;;;;3.70;1.73;;;19.10;99.90;;;;;;4971779;28;20538;-72
2023/05/25 13:56:13;;;;;;;1.20;1.20;;;19.20;99.90;;;;;;4965991;28;20471;-73
2023/05/25 13:58:39;;;;;;;4.63;1.47;;;19.30;99.90;;;;;;4975164;28;20889;-76
2023/05/25 14:01:06;;;;;;;2.20;1.97;;;19.50;99.90;;;;;;4966177;28;20468;-73
2023/05/25 14:03:33;;;;;;;6.33;2.60;;;19.60;99.90;;;;;;4974276;28;20518;-72
2023/05/25 14:05:59;;;;;;;3.20;2.37;;;19.40;99.90;;;;;;4970131;28;20468;-72
2023/05/25 14:08:26;;;;;;;6.00;1.70;;;19.40;99.90;;;;;;4974506;28;20476;-72
2023/05/25 14:10:53;;;;;;;4.27;1.93;;;19.40;99.90;;;;;;4973021;28;20916;-72
2023/05/25 14:13:21;;;;;;;8.50;2.77;;;19.40;99.90;;;;;;4972280;28;21038;-72
2023/05/25 14:15:47;;;;;;;7.67;1.83;;;19.50;99.90;;;;;;4965644;28;20479;-73
2023/05/25 14:18:14;;;;;;;6.83;2.10;;;19.50;99.90;;;;;;4970472;28;20478;-72
2023/05/25 14:20:41;;;;;;;4.77;2.13;;;19.30;99.90;;;;;;4971564;28;20988;-73
2023/05/25 14:23:08;;;;;;;4.63;1.83;;;19.30;99.90;;;;;;4971820;28;20547;-73
2023/05/25 14:25:35;;;;;;;4.43;1.87;;;19.40;99.90;;;;;;4972257;28;20579;-73
2023/05/25 14:28:01;;;;;;;1.53;1.30;;;19.40;99.90;;;;;;4972667;28;20487;-73
2023/05/25 14:30:29;;;;;;;10.60;2.23;;;19.50;99.90;;;;;;4973506;28;20463;-73
2023/05/25 14:32:56;;;;;;;1.70;1.60;;;19.50;99.90;;;;;;4965879;28;20491;-73
2023/05/25 14:35:23;;;;;;;1.43;1.33;;;19.50;99.90;;;;;;4969356;28;20468;-73
2023/05/25 14:37:50;;;;;;;9.70;1.97;;;19.50;99.90;;;;;;4972023;28;20802;-72
2023/05/25 14:40:17;;;;;;;2.07;2.07;;;19.60;99.90;;;;;;4974047;28;20934;-73
2023/05/25 14:42:43;;;;;;;1.20;1.20;;;19.70;99.90;;;;;;4974675;28;20518;-73
2023/05/25 14:45:11;;;;;;;1.40;1.33;;;19.90;99.90;;;;;;4964404;28;20891;-73
2023/05/25 14:47:39;;;;;;;1.60;1.40;;;20.10;99.90;;;;;;4967800;28;20492;-73
2023/05/25 14:50:07;;;;;;;1.70;1.50;;;20.20;99.90;;;;;;4967708;28;20574;-73
2023/05/25 14:52:35;;;;;;;2.70;2.20;;;20.20;99.90;;;;;;4969739;28;20488;-73
2023/05/25 14:55:01;;;;;;;3.53;2.10;;;20.20;99.90;;;;;;4973212;28;20919;-73
2023/05/25 14:57:28;;;;;;;4.07;1.70;;;20.20;99.90;;;;;;4968762;28;20457;-74
2023/05/25 14:59:55;;;;;;;1.77;1.60;;;20.30;99.90;;;;;;4971260;28;20476;-73
2023/05/25 15:02:21;;;;;;;2.67;1.23;;;20.40;99.90;;;;;;4964766;28;20507;-73
2023/05/25 15:04:49;;;;;;;1.10;1.10;;;20.40;99.90;;;;;;4971386;28;20539;-73
2023/05/25 15:07:16;;;;;;;2.97;1.63;;;20.40;99.90;;;;;;4969174;28;20484;-73
2023/05/25 15:09:44;;;;;;;1.90;1.70;;;20.30;99.90;;;;;;4971833;28;20605;-72
2023/05/25 15:12:10;;;;;;;6.03;1.83;;;20.40;99.90;;;;;;4961157;28;20921;-74
2023/05/25 15:14:39;;;;;;;4.20;2.00;;;20.40;99.90;;;;;;4968289;28;20555;-73
2023/05/25 15:17:06;;;;;;;3.73;1.90;;;20.30;99.90;;;;;;4965004;28;20500;-67
2023/05/25 15:19:33;;;;;;;20.77;2.13;;;20.30;99.90;;;;;;4962603;28;20638;-67
2023/05/25 15:22:01;;;;;;;1.90;1.20;;;20.30;99.90;;;;;;4970415;28;20526;-66
2023/05/25 15:24:27;;;;;;;1.97;1.87;;;20.40;99.90;;;;;;4965804;28;20570;-65
2023/05/25 15:26:54;;;;;;;3.97;1.60;;;20.50;99.90;;;;;;4973114;28;20897;-66
2023/05/25 15:29:21;;;;;;;2.00;1.10;;;20.70;99.90;;;;;;4969650;28;20559;-67
2023/05/25 15:31:50;;;;;;;1.03;1.03;;;20.60;99.90;;;;;;4958057;28;21057;-67
2023/05/25 15:34:17;;;;;;;4.93;1.50;;;20.60;99.90;;;;;;4958521;28;20958;-67
2023/05/25 15:36:44;;;;;;;2.40;1.77;;;20.60;99.90;;;;;;4970507;28;20472;-66
2023/05/25 15:39:13;;;;;;;12.40;2.30;;;20.60;99.90;;;;;;4973358;28;20462;-67
2023/05/25 15:41:40;;;;;;;6.07;2.60;;;20.70;99.90;;;;;;4973622;28;20488;-67
2023/05/25 15:44:07;;;;;;;2.70;1.90;;;20.70;99.90;;;;;;4972904;28;20876;-66
2023/05/25 15:46:34;;;;;;;6.07;2.03;;;20.70;99.90;;;;;;4972280;28;20504;-67
2023/05/25 15:49:00;;;;;;;1.77;1.67;;;20.80;99.90;;;;;;4965455;28;20491;-66
2023/05/25 15:51:27;;;;;;;4.60;1.87;;;20.70;99.90;;;;;;4971107;28;20480;-67
2023/05/25 15:53:54;;;;;;;2.93;1.97;;;20.80;99.90;;;;;;4969779;28;20890;-67
2023/05/25 15:56:22;;;;;;;4.47;1.97;;;20.70;99.90;;;;;;4970372;28;20559;-65
2023/05/25 15:58:49;;;;;;;6.87;1.90;;;20.60;99.90;;;;;;4973054;28;20518;-66
2023/05/25 16:01:15;;;;;;;10.63;3.67;;;20.60;99.90;;;;;;4971421;28;20486;-65
2023/05/25 16:03:43;;;;;;;1.53;1.43;;;20.50;99.90;;;;;;4964080;28;20547;-68
2023/05/25 16:06:10;;;;;;;6.40;1.47;;;20.60;99.90;;;;;;4968529;28;20471;-68
2023/05/25 16:08:36;;;;;;;4.03;1.57;;;20.60;99.90;;;;;;4970568;28;20498;-68
2023/05/25 16:11:03;;;;;;;11.90;2.40;;;20.50;99.90;;;;;;4955914;28;20469;-73
2023/05/25 16:13:31;;;;;;;1.90;1.80;;;20.50;99.90;;;;;;4966019;28;20488;-73
2023/05/25 16:15:58;;;;;;;2.10;1.23;;;20.50;99.90;;;;;;4969037;28;21011;-72
2023/05/25 16:18:25;;;;;;;5.13;1.70;;;20.40;99.90;;;;;;4972557;28;20466;-73
2023/05/25 16:20:55;;;;;;;8.00;2.43;;;20.30;99.90;;;;;;4972082;28;20460;-73
2023/05/25 16:23:21;;;;;;;4.20;2.37;;;20.30;99.90;;;;;;4959961;28;21953;-72
2023/05/25 16:25:48;;;;;;;4.10;2.20;;;20.30;99.90;;;;;;4968751;28;20476;-72
2023/05/25 16:28:15;;;;;;;2.87;1.70;;;20.40;99.90;;;;;;4972800;28;20562;-72
2023/05/25 16:30:43;;;;;;;5.30;2.30;;;20.30;99.90;;;;;;4972283;28;20547;-72
2023/05/25 16:33:10;;;;;;;15.40;3.30;;;20.30;99.90;;;;;;4962066;28;20638;-72
2023/05/25 16:35:36;;;;;;;2.97;2.70;;;20.20;99.90;;;;;;4962544;28;20464;-72
2023/05/25 16:38:03;;;;;;;3.13;2.60;;;20.20;99.90;;;;;;4969802;28;20464;-71
2023/05/25 16:40:30;;;;;;;3.53;2.57;;;20.20;99.90;;;;;;4971802;28;20468;-72
2023/05/25 16:42:57;;;;;;;2.30;2.00;;;20.20;99.90;;;;;;4972736;28;20815;-71
2023/05/25 16:45:23;;;;;;;6.00;2.10;;;20.20;99.90;;;;;;4968737;28;21174;-71
2023/05/25 16:47:51;;;;;;;5.40;3.10;;;20.10;99.90;;;;;;4972829;28;20542;-72
2023/05/25 16:50:18;;;;;;;2.10;1.40;;;20.10;99.90;;;;;;4966889;28;20476;-71